createdAt,value
2023-03-18T00:00:28.534Z,8.70
2023-03-18T00:02:55.371Z,8.60
2023-03-18T00:05:22.199Z,8.60
2023-03-18T00:07:50.250Z,8.60
2023-03-18T00:10:17.387Z,8.50
2023-03-18T00:12:44.958Z,8.50
2023-03-18T00:15:13.804Z,8.40
2023-03-18T00:17:41.184Z,8.40
2023-03-18T00:20:10.002Z,8.40
2023-03-18T00:22:38.063Z,8.40
2023-03-18T00:25:07.623Z,8.40
2023-03-18T00:27:35.800Z,8.40
2023-03-18T00:30:05.165Z,8.30
2023-03-18T00:32:32.765Z,8.30
2023-03-18T00:34:59.495Z,8.30
2023-03-18T00:37:33.621Z,8.20
2023-03-18T00:40:09.082Z,8.20
2023-03-18T00:42:49.761Z,8.10
2023-03-18T00:45:26.242Z,8.20
2023-03-18T00:47:57.544Z,8.20
2023-03-18T00:50:28.625Z,8.20
2023-03-18T00:53:00.629Z,8.10
2023-03-18T00:55:28.914Z,8.10
2023-03-18T00:57:58.656Z,8.10
2023-03-18T01:00:26.773Z,8.00
2023-03-18T01:02:58.537Z,8.00
2023-03-18T01:05:28.763Z,8.00
2023-03-18T01:08:00.289Z,8.00
2023-03-18T01:10:36.357Z,8.10
2023-03-18T01:13:07.180Z,8.10
2023-03-18T01:15:41.712Z,8.20
2023-03-18T01:18:17.255Z,8.40
2023-03-18T01:20:47.702Z,8.40
2023-03-18T01:23:19.332Z,8.40
2023-03-18T01:25:51.859Z,8.50
2023-03-18T01:28:23.005Z,8.50
2023-03-18T01:30:57.175Z,8.60
2023-03-18T01:33:42.170Z,8.70
2023-03-18T01:36:10.739Z,8.60
2023-03-18T01:38:38.533Z,8.70
2023-03-18T01:41:05.486Z,8.60
2023-03-18T01:43:35.899Z,8.70
2023-03-18T01:46:32.572Z,8.60
2023-03-18T01:49:00.698Z,8.70
2023-03-18T01:51:29.250Z,8.60
2023-03-18T01:53:59.358Z,8.60
2023-03-18T01:56:27.026Z,8.70
2023-03-18T01:58:57.479Z,8.70
2023-03-18T02:01:37.811Z,8.60
2023-03-18T02:04:07.418Z,8.50
2023-03-18T02:06:34.640Z,8.50
2023-03-18T02:09:02.908Z,8.50
2023-03-18T02:11:33.225Z,8.50
2023-03-18T02:14:01.343Z,8.50
2023-03-18T02:16:56.582Z,8.50
2023-03-18T02:19:54.369Z,8.40
2023-03-18T02:22:31.988Z,8.40
2023-03-18T02:25:32.826Z,8.40
2023-03-18T02:28:03.807Z,8.40
2023-03-18T02:30:53.445Z,8.50
2023-03-18T02:33:22.957Z,8.60
2023-03-18T02:35:55.560Z,8.60
2023-03-18T02:38:22.954Z,8.70
2023-03-18T02:40:49.842Z,8.80
2023-03-18T02:43:31.207Z,8.80
2023-03-18T02:46:04.781Z,8.80
2023-03-18T02:48:37.744Z,8.80
2023-03-18T02:51:07.281Z,8.70
2023-03-18T02:53:34.497Z,8.70
2023-03-18T02:56:02.098Z,8.70
2023-03-18T02:58:28.965Z,8.70
2023-03-18T03:00:57.510Z,8.60
2023-03-18T03:03:26.551Z,8.60
2023-03-18T03:05:53.679Z,8.70
2023-03-18T03:08:20.620Z,8.70
2023-03-18T03:10:47.620Z,8.70
2023-03-18T03:13:14.302Z,8.80
2023-03-18T03:15:41.462Z,8.80
2023-03-18T03:18:08.804Z,8.80
2023-03-18T03:20:37.522Z,8.80
2023-03-18T03:23:05.475Z,8.70
2023-03-18T03:25:32.544Z,8.80
2023-03-18T03:27:59.230Z,8.70
2023-03-18T03:30:26.320Z,8.70
2023-03-18T03:32:53.139Z,8.60
2023-03-18T03:35:20.678Z,8.60
2023-03-18T03:37:48.140Z,8.60
2023-03-18T03:40:18.054Z,8.50
2023-03-18T03:42:45.612Z,8.50
2023-03-18T03:45:14.647Z,8.50
2023-03-18T03:47:42.984Z,8.50
2023-03-18T03:50:11.407Z,8.50
2023-03-18T03:52:39.047Z,8.50
2023-03-18T03:55:12.328Z,8.50
2023-03-18T03:57:39.888Z,8.50
2023-03-18T04:00:14.397Z,8.40
2023-03-18T04:02:43.411Z,8.40
2023-03-18T04:05:12.494Z,8.40
2023-03-18T04:07:41.043Z,8.30
2023-03-18T04:10:09.739Z,8.30
2023-03-18T04:12:37.268Z,8.20
2023-03-18T04:15:05.327Z,8.20
2023-03-18T04:17:32.395Z,8.20
2023-03-18T04:19:59.390Z,8.10
2023-03-18T04:22:26.170Z,8.00
2023-03-18T04:24:53.031Z,8.00
2023-03-18T04:27:19.859Z,7.90
2023-03-18T04:29:46.744Z,7.90
2023-03-18T04:32:13.745Z,7.80
2023-03-18T04:34:40.599Z,7.80
2023-03-18T04:37:08.764Z,7.80
2023-03-18T04:39:35.507Z,7.80
2023-03-18T04:42:02.318Z,7.70
2023-03-18T04:44:29.066Z,7.60
2023-03-18T04:46:55.855Z,7.70
2023-03-18T04:49:23.357Z,7.50
2023-03-18T04:51:50.077Z,7.40
2023-03-18T04:54:16.867Z,7.40
2023-03-18T04:56:43.788Z,7.30
2023-03-18T04:59:10.650Z,7.30
2023-03-18T05:01:38.335Z,7.20
2023-03-18T05:04:05.288Z,7.20
2023-03-18T05:06:33.598Z,7.10
2023-03-18T05:09:01.071Z,7.00
2023-03-18T05:11:28.454Z,6.90
2023-03-18T05:13:55.226Z,6.80
2023-03-18T05:16:22.013Z,6.80
2023-03-18T05:18:48.888Z,6.90
2023-03-18T05:21:15.791Z,6.80
2023-03-18T05:23:42.936Z,6.70
2023-03-18T05:26:11.783Z,6.70
2023-03-18T05:28:39.302Z,6.70
2023-03-18T05:31:07.405Z,6.70
2023-03-18T05:33:34.450Z,6.60
2023-03-18T05:36:01.200Z,6.60
2023-03-18T05:38:28.072Z,6.60
2023-03-18T05:40:55.413Z,6.60
2023-03-18T05:43:23.217Z,6.50
2023-03-18T05:45:50.217Z,6.50
2023-03-18T05:48:17.662Z,6.40
2023-03-18T05:50:45.150Z,6.30
2023-03-18T05:53:12.126Z,6.40
2023-03-18T05:55:40.312Z,6.30
2023-03-18T05:58:07.380Z,6.30
2023-03-18T06:00:34.424Z,6.00
2023-03-18T06:03:01.928Z,6.10
2023-03-18T06:05:29.818Z,6.00
2023-03-18T06:07:57.367Z,6.00
2023-03-18T06:10:25.328Z,6.00
2023-03-18T06:12:52.761Z,6.00
2023-03-18T06:15:21.219Z,5.90
2023-03-18T06:17:48.625Z,5.90
2023-03-18T06:20:15.988Z,5.90
2023-03-18T06:22:43.826Z,5.80
2023-03-18T06:25:10.947Z,5.80
2023-03-18T06:27:37.723Z,5.70
2023-03-18T06:30:05.516Z,5.70
2023-03-18T06:32:33.859Z,5.70
2023-03-18T06:35:00.914Z,5.70
2023-03-18T06:37:28.230Z,5.80
2023-03-18T06:39:55.340Z,5.70
2023-03-18T06:42:22.016Z,5.70
2023-03-18T06:44:51.272Z,5.60
2023-03-18T06:47:19.369Z,5.80
2023-03-18T06:49:47.025Z,5.80
2023-03-18T06:52:14.284Z,5.80
2023-03-18T06:54:41.487Z,5.80
2023-03-18T06:57:08.830Z,5.80
2023-03-18T06:59:36.301Z,5.80
2023-03-18T07:02:05.173Z,5.80
2023-03-18T07:04:33.929Z,5.90
2023-03-18T07:07:01.042Z,5.90
2023-03-18T07:09:28.360Z,5.90
2023-03-18T07:11:55.244Z,6.00
2023-03-18T07:14:22.368Z,6.00
2023-03-18T07:16:49.142Z,6.10
2023-03-18T07:19:16.426Z,6.20
2023-03-18T07:21:43.792Z,6.20
2023-03-18T07:24:11.349Z,6.30
2023-03-18T07:26:38.442Z,6.30
2023-03-18T07:29:05.463Z,6.40
2023-03-18T07:31:32.192Z,6.60
2023-03-18T07:33:59.157Z,6.70
2023-03-18T07:36:26.751Z,6.80
2023-03-18T07:38:53.768Z,6.90
2023-03-18T07:41:20.560Z,7.00
2023-03-18T07:43:47.365Z,7.00
2023-03-18T07:46:15.332Z,7.10
2023-03-18T07:48:42.127Z,7.20
2023-03-18T07:51:09.020Z,7.40
2023-03-18T07:53:36.177Z,7.60
2023-03-18T07:56:03.998Z,7.70
2023-03-18T07:58:40.203Z,7.70
2023-03-18T08:01:10.986Z,7.90
2023-03-18T08:03:38.687Z,8.00
2023-03-18T08:06:05.626Z,8.00
2023-03-18T08:08:35.775Z,8.10
2023-03-18T08:11:03.122Z,8.30
2023-03-18T08:13:32.816Z,8.30
2023-03-18T08:16:02.318Z,8.40
2023-03-18T08:18:29.079Z,8.60
2023-03-18T08:20:58.724Z,8.70
2023-03-18T08:23:27.844Z,8.70
2023-03-18T08:25:54.809Z,8.80
2023-03-18T08:28:21.614Z,8.90
2023-03-18T08:30:48.875Z,9.00
2023-03-18T08:33:16.047Z,9.20
2023-03-18T08:35:43.294Z,9.40
2023-03-18T08:38:12.441Z,9.50
2023-03-18T08:40:43.380Z,9.50
2023-03-18T08:43:10.649Z,9.60
2023-03-18T08:45:37.749Z,9.70
2023-03-18T08:48:04.792Z,9.80
2023-03-18T08:50:32.059Z,10.10
2023-03-18T08:53:02.946Z,10.20
2023-03-18T08:55:42.189Z,10.20
2023-03-18T08:58:11.573Z,10.20
2023-03-18T09:00:45.647Z,10.30
2023-03-18T09:03:15.791Z,10.40
2023-03-18T09:05:42.779Z,10.80
2023-03-18T09:08:09.552Z,11.00
2023-03-18T09:10:36.417Z,11.00
2023-03-18T09:13:03.479Z,11.20
2023-03-18T09:15:31.726Z,11.40
2023-03-18T09:18:11.133Z,11.60
2023-03-18T09:20:40.234Z,11.80
2023-03-18T09:23:08.029Z,12.00
2023-03-18T09:25:35.314Z,12.10
2023-03-18T09:28:02.255Z,12.30
2023-03-18T09:30:30.154Z,12.40
2023-03-18T09:32:56.951Z,12.50
2023-03-18T09:35:26.918Z,12.60
2023-03-18T09:37:54.094Z,12.80
2023-03-18T09:40:33.537Z,13.00
2023-03-18T09:43:13.292Z,13.20
2023-03-18T09:46:02.578Z,13.60
2023-03-18T09:48:41.902Z,13.80
2023-03-18T09:51:37.733Z,14.00
2023-03-18T09:54:22.853Z,14.10
2023-03-18T09:56:54.341Z,14.50
2023-03-18T09:59:38.498Z,15.00
2023-03-18T10:02:36.493Z,15.10
2023-03-18T10:05:16.202Z,15.40
2023-03-18T10:07:46.174Z,15.70
2023-03-18T10:10:37.254Z,15.90
2023-03-18T10:13:35.489Z,16.10
2023-03-18T10:16:07.465Z,16.40
2023-03-18T10:18:38.276Z,16.40
2023-03-18T10:21:18.094Z,16.70
2023-03-18T10:24:11.900Z,16.70
2023-03-18T10:27:03.120Z,16.70
2023-03-18T10:29:45.212Z,16.60
2023-03-18T10:32:33.273Z,16.70
2023-03-18T10:35:28.627Z,16.80
2023-03-18T10:38:04.717Z,17.10
2023-03-18T10:40:37.115Z,17.20
2023-03-18T10:43:04.359Z,17.30
2023-03-18T10:45:34.526Z,17.40
2023-03-18T10:48:25.445Z,17.40
2023-03-18T10:51:31.594Z,17.40
2023-03-18T10:54:09.496Z,17.40
2023-03-18T10:56:36.739Z,17.30
2023-03-18T10:59:16.095Z,17.30
2023-03-18T11:01:50.789Z,17.20
2023-03-18T11:04:21.636Z,17.20
2023-03-18T11:07:03.536Z,17.50
2023-03-18T11:09:36.475Z,17.80
2023-03-18T11:12:19.083Z,18.00
2023-03-18T11:14:50.303Z,18.10
2023-03-18T11:17:28.070Z,18.40
2023-03-18T11:20:25.186Z,18.50
2023-03-18T11:22:55.502Z,18.50
2023-03-18T11:25:29.098Z,18.70
2023-03-18T11:28:11.859Z,18.70
2023-03-18T11:30:48.683Z,19.00
2023-03-18T11:33:17.606Z,19.20
2023-03-18T11:35:44.259Z,19.30
2023-03-18T11:38:28.922Z,19.30
2023-03-18T11:41:28.334Z,19.20
2023-03-18T11:44:05.706Z,19.10
2023-03-18T11:46:53.634Z,19.20
2023-03-18T11:49:23.686Z,19.30
2023-03-18T11:51:54.767Z,19.60
2023-03-18T11:54:40.347Z,19.60
2023-03-18T11:57:42.739Z,19.60
2023-03-18T12:00:19.351Z,19.50
2023-03-18T12:03:11.028Z,19.40
2023-03-18T12:06:03.925Z,19.60
2023-03-18T12:09:07.610Z,19.70
2023-03-18T12:12:08.971Z,19.70
2023-03-18T12:14:45.748Z,19.80
2023-03-18T12:17:30.252Z,19.90
2023-03-18T12:20:25.763Z,19.60
2023-03-18T12:23:30.259Z,19.80
2023-03-18T12:26:17.096Z,19.70
2023-03-18T12:29:12.514Z,19.60
2023-03-18T12:31:52.312Z,19.40
2023-03-18T12:34:51.579Z,19.30
2023-03-18T12:37:36.462Z,19.00
2023-03-18T12:40:43.248Z,19.00
2023-03-18T12:43:37.540Z,18.90
2023-03-18T12:46:51.527Z,18.80
2023-03-18T12:49:54.727Z,18.80
2023-03-18T12:52:58.852Z,18.90
2023-03-18T12:55:36.852Z,18.90
2023-03-18T12:58:37.966Z,18.90
2023-03-18T13:01:34.051Z,18.80
2023-03-18T13:04:20.008Z,18.80
2023-03-18T13:06:56.432Z,18.80
2023-03-18T13:09:44.582Z,18.80
2023-03-18T13:12:22.265Z,18.70
2023-03-18T13:15:24.597Z,18.60
2023-03-18T13:17:57.263Z,18.50
2023-03-18T13:21:12.059Z,18.40
2023-03-18T13:24:23.090Z,18.50
2023-03-18T13:27:32.271Z,18.50
2023-03-18T13:30:22.434Z,18.50
2023-03-18T13:33:14.039Z,18.50
2023-03-18T13:36:19.731Z,18.40
2023-03-18T13:39:13.262Z,18.30
2023-03-18T13:42:07.094Z,18.30
2023-03-18T13:45:05.249Z,18.30
2023-03-18T13:47:35.148Z,18.30
2023-03-18T13:50:06.036Z,18.30
2023-03-18T13:52:48.922Z,18.30
2023-03-18T13:55:28.842Z,18.40
2023-03-18T13:58:05.405Z,18.40
2023-03-18T14:00:42.641Z,18.40
2023-03-18T14:03:43.814Z,18.40
2023-03-18T14:06:11.004Z,18.40
2023-03-18T14:09:00.913Z,18.40
2023-03-18T14:11:45.378Z,18.30
2023-03-18T14:14:51.469Z,18.30
2023-03-18T14:17:42.237Z,18.20
2023-03-18T14:20:15.095Z,18.20
2023-03-18T14:22:43.574Z,18.20
2023-03-18T14:29:13.326Z,18.20
2023-03-18T14:31:40.150Z,18.10
2023-03-18T14:34:25.653Z,18.10
2023-03-18T14:36:59.292Z,18.10
2023-03-18T14:39:34.020Z,18.10
2023-03-18T14:42:15.346Z,18.10
2023-03-18T14:44:54.656Z,18.10
2023-03-18T14:48:17.231Z,18.10
2023-03-18T14:50:51.072Z,18.10
2023-03-18T14:54:06.712Z,18.00
2023-03-18T15:00:14.095Z,17.90
2023-03-18T15:02:41.167Z,17.80
2023-03-18T15:05:10.620Z,17.80
2023-03-18T15:07:41.355Z,17.80
2023-03-18T15:10:17.128Z,17.80
2023-03-18T15:12:44.220Z,17.80
2023-03-18T15:15:15.456Z,17.70
2023-03-18T15:17:47.653Z,17.70
2023-03-18T15:20:14.490Z,17.70
2023-03-18T15:22:43.376Z,17.60
2023-03-18T15:25:20.529Z,17.60
2023-03-18T15:27:48.346Z,17.70
2023-03-18T15:30:30.251Z,17.60
2023-03-18T15:33:24.571Z,17.60
2023-03-18T15:35:56.603Z,17.70
2023-03-18T15:38:29.084Z,17.70
2023-03-18T15:41:01.479Z,17.70
2023-03-18T15:43:46.538Z,17.70
2023-03-18T15:46:32.605Z,17.70
2023-03-18T15:49:04.535Z,17.60
2023-03-18T15:51:45.034Z,17.60
2023-03-18T15:54:24.808Z,17.60
2023-03-18T15:56:55.089Z,17.60
2023-03-18T15:59:28.647Z,17.50
2023-03-18T16:01:56.828Z,17.50
2023-03-18T16:04:25.413Z,17.50
2023-03-18T16:06:55.256Z,17.40
2023-03-18T16:09:24.348Z,17.40
2023-03-18T16:11:57.587Z,17.40
2023-03-18T16:14:33.555Z,17.30
2023-03-18T16:17:00.295Z,17.20
2023-03-18T16:19:28.579Z,17.20
2023-03-18T16:21:57.357Z,17.20
2023-03-18T16:24:25.334Z,17.20
2023-03-18T16:26:53.703Z,17.20
2023-03-18T16:29:29.752Z,17.10
2023-03-18T16:31:57.020Z,17.10
2023-03-18T16:34:24.307Z,17.00
2023-03-18T16:36:53.477Z,17.00
2023-03-18T16:39:24.429Z,17.00
2023-03-18T16:41:52.266Z,16.90
2023-03-18T16:44:21.396Z,16.90
2023-03-18T16:46:55.144Z,16.80
2023-03-18T16:49:25.571Z,16.80
2023-03-18T16:51:52.324Z,16.70
2023-03-18T16:54:27.257Z,16.60
2023-03-18T16:57:02.980Z,16.50
2023-03-18T16:59:34.301Z,16.50
2023-03-18T17:02:03.986Z,16.50
2023-03-18T17:04:35.261Z,16.40
2023-03-18T17:07:04.505Z,16.40
2023-03-18T17:09:32.120Z,16.40
2023-03-18T17:12:05.237Z,16.30
2023-03-18T17:14:39.687Z,16.20
2023-03-18T17:17:33.232Z,16.20
2023-03-18T17:19:59.934Z,16.10
2023-03-18T17:22:32.609Z,16.10
2023-03-18T17:25:01.379Z,16.00
2023-03-18T17:27:33.924Z,16.00
2023-03-18T17:30:00.907Z,15.90
2023-03-18T17:32:27.572Z,15.80
2023-03-18T17:34:54.815Z,15.80
2023-03-18T17:37:23.585Z,15.70
2023-03-18T17:39:50.581Z,15.60
2023-03-18T17:42:33.161Z,15.50
2023-03-18T17:45:06.904Z,15.30
2023-03-18T17:47:34.972Z,15.30
2023-03-18T17:50:01.693Z,15.10
2023-03-18T17:52:28.428Z,15.00
2023-03-18T17:54:55.682Z,14.90
2023-03-18T17:57:22.378Z,14.80
2023-03-18T17:59:49.058Z,14.70
2023-03-18T18:02:21.128Z,14.60
2023-03-18T18:04:47.893Z,14.60
2023-03-18T18:07:19.538Z,14.50
2023-03-18T18:09:46.968Z,14.50
2023-03-18T18:12:19.798Z,14.50
2023-03-18T18:14:46.760Z,14.40
2023-03-18T18:17:15.532Z,14.30
2023-03-18T18:19:43.311Z,14.20
2023-03-18T18:22:30.234Z,14.20
2023-03-18T18:24:57.893Z,14.10
2023-03-18T18:27:24.659Z,14.00
2023-03-18T18:29:51.853Z,14.00
2023-03-18T18:32:18.975Z,13.90
2023-03-18T18:34:46.709Z,13.90
2023-03-18T18:37:13.621Z,13.90
2023-03-18T18:39:41.137Z,13.80
2023-03-18T18:42:08.171Z,13.80
2023-03-18T18:44:35.707Z,13.70
2023-03-18T18:47:02.579Z,13.70
2023-03-18T18:49:29.414Z,13.60
2023-03-18T18:51:56.509Z,13.50
2023-03-18T18:54:24.574Z,13.40
2023-03-18T18:56:52.351Z,13.30
2023-03-18T18:59:32.209Z,13.30
2023-03-18T19:02:00.671Z,13.30
2023-03-18T19:04:27.448Z,13.20
2023-03-18T19:06:54.618Z,13.20
2023-03-18T19:09:24.631Z,13.10
2023-03-18T19:11:52.279Z,13.00
2023-03-18T19:14:24.741Z,13.00
2023-03-18T19:16:52.345Z,12.90
2023-03-18T19:19:22.096Z,12.90
2023-03-18T19:21:50.910Z,12.90
2023-03-18T19:24:32.617Z,12.70
2023-03-18T19:27:02.049Z,12.70
2023-03-18T19:29:29.306Z,12.60
2023-03-18T19:31:56.204Z,12.60
2023-03-18T19:34:23.686Z,12.60
2023-03-18T19:36:54.985Z,12.40
2023-03-18T19:39:22.671Z,12.40
2023-03-18T19:41:51.084Z,12.30
2023-03-18T19:44:24.147Z,12.20
2023-03-18T19:46:54.498Z,12.10
2023-03-18T19:49:28.518Z,12.10
2023-03-18T19:51:56.135Z,12.00
2023-03-18T19:54:29.370Z,12.00
2023-03-18T19:57:00.307Z,11.90
2023-03-18T19:59:37.960Z,11.90
2023-03-18T20:02:18.284Z,11.90
2023-03-18T20:04:45.028Z,11.80
2023-03-18T20:07:11.702Z,11.80
2023-03-18T20:09:39.423Z,11.70
2023-03-18T20:12:07.097Z,11.70
2023-03-18T20:14:39.124Z,11.60
2023-03-18T20:17:41.843Z,11.60
2023-03-18T20:20:19.634Z,11.70
2023-03-18T20:22:52.426Z,11.50
2023-03-18T20:25:23.838Z,11.50
2023-03-18T20:27:53.510Z,11.40
2023-03-18T20:30:27.805Z,11.30
2023-03-18T20:32:55.066Z,11.20
2023-03-18T20:35:23.837Z,11.20
2023-03-18T20:37:50.733Z,11.20
2023-03-18T20:40:24.169Z,11.20
2023-03-18T20:42:52.612Z,11.10
2023-03-18T20:45:21.105Z,11.10
2023-03-18T20:47:48.618Z,10.90
2023-03-18T20:50:21.203Z,10.90
2023-03-18T20:52:48.368Z,10.80
2023-03-18T20:55:26.492Z,10.80
2023-03-18T20:57:54.290Z,10.70
2023-03-18T21:00:24.511Z,10.70
2023-03-18T21:02:54.035Z,10.70
2023-03-18T21:05:21.753Z,10.70
2023-03-18T21:07:49.017Z,10.70
2023-03-18T21:10:17.440Z,10.70
2023-03-18T21:12:44.937Z,10.60
2023-03-18T21:15:23.552Z,10.50
2023-03-18T21:17:50.653Z,10.50
2023-03-18T21:20:26.457Z,10.50
2023-03-18T21:22:54.509Z,10.50
2023-03-18T21:25:24.392Z,10.40
2023-03-18T21:27:51.637Z,10.30
2023-03-18T21:30:21.982Z,10.30
2023-03-18T21:32:50.633Z,10.20
2023-03-18T21:35:23.385Z,10.20
2023-03-18T21:37:50.841Z,10.20
2023-03-18T21:40:20.815Z,10.20
2023-03-18T21:42:51.904Z,10.10
2023-03-18T21:45:23.621Z,9.90
2023-03-18T21:47:52.394Z,9.90
2023-03-18T21:50:26.587Z,9.80
2023-03-18T21:52:54.229Z,9.90
2023-03-18T21:55:21.735Z,9.90
2023-03-18T21:57:49.421Z,9.90
2023-03-18T22:00:20.216Z,9.90
2023-03-18T22:02:47.662Z,9.90
2023-03-18T22:05:17.632Z,9.80
2023-03-18T22:07:44.436Z,9.70
2023-03-18T22:10:15.956Z,9.70
2023-03-18T22:12:42.746Z,9.60
2023-03-18T22:15:39.321Z,9.50
2023-03-18T22:18:07.392Z,9.40
2023-03-18T22:20:36.459Z,9.40
2023-03-18T22:23:19.090Z,9.30
2023-03-18T22:25:48.740Z,9.40
2023-03-18T22:28:16.165Z,9.40
2023-03-18T22:30:46.092Z,9.30
2023-03-18T22:33:26.584Z,9.20
2023-03-18T22:35:53.557Z,9.10
2023-03-18T22:38:22.276Z,9.10
2023-03-18T22:40:52.801Z,9.10
2023-03-18T22:43:31.554Z,9.10
2023-03-18T22:46:00.466Z,9.00
2023-03-18T22:48:27.896Z,8.90
2023-03-18T22:50:55.997Z,8.90
2023-03-18T22:53:31.018Z,8.90
2023-03-18T22:56:01.344Z,8.80
2023-03-18T22:58:28.418Z,8.80
2023-03-18T23:00:56.093Z,8.80
2023-03-18T23:03:29.154Z,8.80
2023-03-18T23:05:57.364Z,8.80
2023-03-18T23:08:24.479Z,8.80
2023-03-18T23:10:53.124Z,8.80
2023-03-18T23:13:36.719Z,8.80
2023-03-18T23:16:09.062Z,8.80
2023-03-18T23:18:37.482Z,8.80
2023-03-18T23:21:04.284Z,8.80
2023-03-18T23:23:31.528Z,8.80
2023-03-18T23:25:58.342Z,8.80
2023-03-18T23:28:25.074Z,8.70
2023-03-18T23:30:53.003Z,8.70
2023-03-18T23:33:20.074Z,8.70
2023-03-18T23:35:48.214Z,8.60
2023-03-18T23:38:15.482Z,8.60
2023-03-18T23:40:42.331Z,8.60
2023-03-18T23:43:09.216Z,8.50
2023-03-18T23:45:38.144Z,8.60
2023-03-18T23:48:06.118Z,8.50
2023-03-18T23:50:32.905Z,8.50
2023-03-18T23:53:00.490Z,8.60
2023-03-18T23:55:34.566Z,8.50
2023-03-18T23:58:02.914Z,8.50
